Time;durP1;ratioP1;P1;durP2;ratioP2;P2;SDS_P1;SDS_P2;PMS_P1;PMS_P2;Temp;Humidity;BMP_temperature;BMP_pressure;BME280_temperature;BME280_humidity;BME280_pressure;Samples;Min_cycle;Max_cycle;Signal;HPM_P1;HPM_P2
2023/05/30 00:01:37;;;;;;;5.53;3.33;;;24.90;78.60;;;;;;10979843;32;20076;-74
2023/05/30 00:07:40;;;;;;;5.55;3.12;;;24.90;79.00;;;;;;10966459;32;20126;-73
2023/05/30 00:13:44;;;;;;;4.50;2.47;;;24.90;79.20;;;;;;10979714;32;20022;-75
2023/05/30 00:19:46;;;;;;;4.97;2.53;;;25.00;79.30;;;;;;10979507;32;20049;-75
2023/05/30 00:25:49;;;;;;;4.50;2.92;;;25.00;79.30;;;;;;10978445;32;20026;-75
2023/05/30 00:31:51;;;;;;;4.72;2.40;;;25.00;79.40;;;;;;10979373;32;20023;-74
2023/05/30 00:37:53;;;;;;;7.87;3.62;;;25.00;79.30;;;;;;10977046;32;20443;-73
2023/05/30 00:43:55;;;;;;;4.62;2.92;;;25.00;79.30;;;;;;10986962;32;20045;-74
2023/05/30 00:49:58;;;;;;;4.78;3.78;;;24.80;78.40;;;;;;10973312;32;20069;-74
2023/05/30 00:56:01;;;;;;;4.72;3.17;;;24.60;79.10;;;;;;10973057;32;20022;-73
2023/05/30 01:02:04;;;;;;;7.25;4.28;;;24.60;79.50;;;;;;10986350;32;20336;-75
2023/05/30 01:08:07;;;;;;;5.75;3.72;;;24.70;79.60;;;;;;10984435;32;20306;-75
2023/05/30 01:14:40;;;;;;;3.40;2.45;;;24.60;79.80;;;;;;10986021;32;20018;-74
2023/05/30 01:20:47;;;;;;;5.00;2.00;;;24.60;79.90;;;;;;10985595;32;20045;-74
2023/05/30 01:27:11;;;;;;;5.22;2.75;;;24.70;80.00;;;;;;10972298;32;20408;-74
2023/05/30 01:33:14;;;;;;;3.12;1.92;;;24.60;80.10;;;;;;10985250;32;20023;-75
2023/05/30 01:39:16;;;;;;;3.42;1.58;;;24.50;80.00;;;;;;10985476;32;20023;-75
2023/05/30 01:45:27;;;;;;;3.90;1.87;;;24.60;79.80;;;;;;10984839;32;20048;-75
2023/05/30 01:52:00;;;;;;;3.22;1.73;;;24.60;79.70;;;;;;10970866;32;20302;-75
2023/05/30 01:58:05;;;;;;;2.97;2.00;;;24.60;79.90;;;;;;10983330;32;20053;-75
2023/05/30 02:04:07;;;;;;;2.78;1.90;;;24.50;79.80;;;;;;10984099;32;20073;-75
2023/05/30 02:10:10;;;;;;;4.15;2.65;;;24.60;79.80;;;;;;10981176;32;20405;-75
2023/05/30 02:16:24;;;;;;;5.18;2.12;;;24.60;79.80;;;;;;10983872;32;20002;-75
2023/05/30 02:22:26;;;;;;;3.95;2.50;;;24.50;79.60;;;;;;10983481;32;20428;-75
2023/05/30 02:28:29;;;;;;;6.30;2.97;;;24.50;79.60;;;;;;10979628;32;20019;-75
2023/05/30 02:34:32;;;;;;;3.75;2.12;;;24.50;79.20;;;;;;10969720;32;20053;-76
2023/05/30 02:40:37;;;;;;;4.35;2.65;;;24.40;79.10;;;;;;10965655;32;20026;-75
2023/05/30 02:46:38;;;;;;;4.07;2.40;;;24.30;79.20;;;;;;10982608;32;20427;-75
2023/05/30 02:52:41;;;;;;;2.55;1.83;;;24.30;79.00;;;;;;10968599;32;20354;-76
2023/05/30 02:58:43;;;;;;;3.85;2.30;;;24.20;78.80;;;;;;10956119;32;20435;-76
2023/05/30 03:04:46;;;;;;;3.60;2.22;;;24.00;79.10;;;;;;10980689;32;20026;-76
2023/05/30 03:10:50;;;;;;;4.12;2.25;;;23.80;79.20;;;;;;10980799;32;20048;-76
2023/05/30 03:16:52;;;;;;;3.03;2.03;;;23.80;79.30;;;;;;10981453;32;20322;-75
2023/05/30 03:22:54;;;;;;;2.55;1.73;;;23.70;79.30;;;;;;10981238;32;20003;-75
2023/05/30 03:28:57;;;;;;;5.70;2.65;;;23.70;79.20;;;;;;10979278;32;20076;-75
2023/05/30 03:34:59;;;;;;;2.72;1.83;;;23.70;79.00;;;;;;10965605;32;20023;-76
2023/05/30 03:41:02;;;;;;;4.55;2.47;;;23.70;78.80;;;;;;10977497;32;20057;-75
2023/05/30 03:47:04;;;;;;;4.15;2.67;;;23.70;78.60;;;;;;10980517;32;20056;-75
2023/05/30 03:53:06;;;;;;;5.05;2.80;;;23.70;78.60;;;;;;10980261;32;20026;-75
2023/05/30 03:59:09;;;;;;;3.42;1.73;;;23.60;78.40;;;;;;10980027;32;20049;-76
2023/05/30 04:05:11;;;;;;;4.43;2.37;;;23.50;78.70;;;;;;10977184;32;20045;-75
2023/05/30 04:11:13;;;;;;;3.90;2.28;;;23.20;78.80;;;;;;10979821;32;20014;-75
2023/05/30 04:17:15;;;;;;;5.85;3.22;;;23.10;79.10;;;;;;10980318;32;20446;-75
2023/05/30 04:23:20;;;;;;;5.07;2.83;;;23.20;79.00;;;;;;10963506;32;20265;-74
2023/05/30 04:29:22;;;;;;;5.18;2.37;;;23.30;78.60;;;;;;10965799;32;20034;-75
2023/05/30 04:35:24;;;;;;;4.30;2.50;;;23.30;78.70;;;;;;10980101;32;20014;-74
2023/05/30 04:41:26;;;;;;;6.03;3.45;;;23.30;78.80;;;;;;10979787;32;20419;-75
2023/05/30 04:47:29;;;;;;;5.03;2.67;;;23.30;78.70;;;;;;10979290;32;20388;-75
2023/05/30 04:53:31;;;;;;;6.53;3.40;;;23.30;78.80;;;;;;10979651;32;20045;-76
2023/05/30 04:59:59;;;;;;;11.20;5.37;;;23.50;78.70;;;;;;10978529;32;20026;-74
2023/05/30 05:06:02;;;;;;;5.30;3.00;;;23.60;79.00;;;;;;10980066;32;20027;-76
2023/05/30 05:12:04;;;;;;;6.65;2.85;;;23.60;79.20;;;;;;10978603;32;20332;-75
2023/05/30 05:18:07;;;;;;;6.10;3.35;;;23.70;79.10;;;;;;10978721;32;20340;-75
2023/05/30 05:24:09;;;;;;;3.87;2.50;;;23.80;79.10;;;;;;10982495;32;20007;-73
2023/05/30 05:30:12;;;;;;;4.68;2.92;;;23.90;79.00;;;;;;10968018;32;20392;-74
2023/05/30 05:36:14;;;;;;;3.05;1.45;;;24.00;79.30;;;;;;10972489;32;20022;-73
2023/05/30 05:42:16;;;;;;;3.67;2.30;;;24.10;79.30;;;;;;10985472;32;20301;-75
2023/05/30 05:48:18;;;;;;;2.58;1.33;;;24.20;79.20;;;;;;10982003;32;20275;-76
2023/05/30 05:54:20;;;;;;;3.80;1.77;;;24.30;79.20;;;;;;10982669;32;20419;-76
2023/05/30 06:00:23;;;;;;;3.37;1.85;;;24.40;79.00;;;;;;10985668;32;20023;-75
2023/05/30 06:06:36;;;;;;;3.37;1.35;;;24.70;78.90;;;;;;10985361;32;20014;-76
2023/05/30 06:12:39;;;;;;;3.55;1.95;;;24.70;78.90;;;;;;10980084;32;20065;-75
2023/05/30 06:18:42;;;;;;;4.30;2.28;;;24.70;79.00;;;;;;10980362;32;20022;-75
2023/05/30 06:24:44;;;;;;;3.05;1.42;;;24.80;78.90;;;;;;10983613;32;20019;-73
2023/05/30 06:30:46;;;;;;;7.43;3.90;;;25.00;78.60;;;;;;10985033;32;20015;-72
2023/05/30 06:36:48;;;;;;;5.12;2.80;;;25.10;78.50;;;;;;10981665;32;20023;-74
2023/05/30 06:42:50;;;;;;;4.93;2.83;;;25.10;78.50;;;;;;10956210;32;20034;-74
2023/05/30 06:48:52;;;;;;;5.25;2.22;;;24.90;78.60;;;;;;10983215;32;20022;-74
2023/05/30 06:54:54;;;;;;;3.85;2.67;;;25.00;78.80;;;;;;10983054;32;20015;-74
2023/05/30 07:00:56;;;;;;;4.65;2.80;;;25.20;78.70;;;;;;10980718;32;20341;-74
2023/05/30 07:06:59;;;;;;;5.00;2.70;;;25.30;78.30;;;;;;10980080;32;20357;-74
2023/05/30 07:13:01;;;;;;;3.97;2.30;;;25.40;78.40;;;;;;10965649;32;20072;-73
2023/05/30 07:19:03;;;;;;;3.78;2.25;;;25.50;78.00;;;;;;10982692;32;20022;-72
2023/05/30 07:25:06;;;;;;;4.00;2.45;;;25.50;78.20;;;;;;10729468;27;7076904;-75
2023/05/30 07:31:09;;;;;;;4.25;2.50;;;25.60;77.60;;;;;;10772528;32;20090;-74
2023/05/30 07:37:23;;;;;;;4.97;2.65;;;25.70;77.50;;;;;;10785627;33;20020;-74
2023/05/30 07:43:25;;;;;;;5.47;3.03;;;25.90;77.30;;;;;;10772053;33;20016;-71
2023/05/30 07:49:27;;;;;;;7.75;2.70;;;26.10;77.20;;;;;;10789480;33;20039;-74
2023/05/30 07:56:10;;;;;;;8.30;3.42;;;26.30;76.00;;;;;;10788929;33;20056;-73
2023/05/30 08:02:12;;;;;;;7.00;3.87;;;26.40;74.80;;;;;;10788312;33;20020;-72
2023/05/30 08:08:14;;;;;;;4.37;2.62;;;26.40;75.20;;;;;;10788223;33;20020;-73
2023/05/30 08:14:16;;;;;;;5.53;2.92;;;26.40;73.60;;;;;;10788063;33;20020;-72
2023/05/30 08:20:18;;;;;;;5.53;3.28;;;26.50;71.90;;;;;;10787745;33;20058;-74
2023/05/30 08:26:20;;;;;;;6.68;3.85;;;26.70;71.30;;;;;;10787603;33;20272;-72
2023/05/30 08:32:22;;;;;;;8.20;4.87;;;26.70;70.70;;;;;;10787447;32;20024;-73
2023/05/30 08:38:24;;;;;;;9.30;4.62;;;26.80;70.80;;;;;;10787870;33;20043;-72
2023/05/30 08:44:33;;;;;;;6.28;3.10;;;26.80;69.90;;;;;;10786904;33;20021;-73
2023/05/30 08:50:36;;;;;;;5.95;2.83;;;26.90;70.50;;;;;;10788409;33;20004;-73
2023/05/30 08:56:45;;;;;;;6.50;4.07;;;27.10;69.50;;;;;;10786984;33;20074;-74
2023/05/30 09:02:49;;;;;;;6.62;3.90;;;27.30;67.80;;;;;;10792456;33;20043;-71
2023/05/30 09:08:53;;;;;;;6.25;3.45;;;27.40;67.00;;;;;;10768495;32;20055;-72
2023/05/30 09:14:55;;;;;;;8.75;5.78;;;27.60;66.30;;;;;;10779677;33;20308;-71
2023/05/30 09:20:57;;;;;;;5.68;3.75;;;27.50;67.20;;;;;;10779853;33;20365;-72
2023/05/30 09:27:01;;;;;;;5.53;3.72;;;27.10;65.70;;;;;;10779392;33;20028;-74
2023/05/30 09:33:03;;;;;;;5.45;2.95;;;27.00;66.00;;;;;;10792458;33;20017;-74
2023/05/30 09:39:05;;;;;;;6.72;3.47;;;27.20;63.70;;;;;;10792223;33;20436;-73
2023/05/30 09:45:20;;;;;;;9.38;3.72;;;27.50;61.90;;;;;;10792295;32;20016;-73
2023/05/30 09:51:27;;;;;;;6.05;3.17;;;27.80;62.10;;;;;;10792084;33;20013;-72
2023/05/30 09:57:29;;;;;;;6.55;4.32;;;27.80;61.20;;;;;;10791826;33;20070;-71
2023/05/30 10:03:42;;;;;;;6.32;4.35;;;27.80;63.00;;;;;;10778568;33;20043;-72
2023/05/30 10:09:45;;;;;;;6.72;3.62;;;27.80;63.90;;;;;;10778267;32;20047;-73
2023/05/30 10:15:47;;;;;;;5.65;3.87;;;27.90;62.50;;;;;;10791379;33;20016;-72
2023/05/30 10:21:53;;;;;;;5.82;2.97;;;28.10;60.60;;;;;;10791110;33;20070;-74
2023/05/30 10:28:00;;;;;;;5.80;3.40;;;28.30;59.60;;;;;;10791112;33;20013;-72
2023/05/30 10:34:08;;;;;;;10.07;4.73;;;28.40;59.20;;;;;;10790890;33;20024;-73
2023/05/30 10:41:01;;;;;;;7.87;4.15;;;28.50;59.90;;;;;;10790515;33;20037;-72
2023/05/30 10:47:09;;;;;;;6.20;2.83;;;28.70;60.60;;;;;;10678158;33;20025;-71
2023/05/30 10:53:18;;;;;;;7.40;4.47;;;28.80;60.90;;;;;;10673966;33;20025;-74
2023/05/30 10:59:21;;;;;;;6.68;4.03;;;29.10;60.80;;;;;;10677396;33;20055;-72
2023/05/30 11:05:32;;;;;;;5.75;3.50;;;29.30;58.80;;;;;;10674322;33;20026;-72
2023/05/30 11:11:42;;;;;;;5.72;3.25;;;29.40;58.80;;;;;;10665177;33;20033;-72
2023/05/30 11:17:44;;;;;;;5.37;3.58;;;29.60;60.10;;;;;;10707707;33;20059;-71
2023/05/30 11:23:59;;;;;;;7.30;4.03;;;29.70;59.70;;;;;;10788745;33;20015;-73
2023/05/30 11:30:04;;;;;;;7.25;3.53;;;29.90;57.20;;;;;;10776168;33;20009;-72
2023/05/30 11:36:08;;;;;;;4.97;2.95;;;30.00;56.40;;;;;;10788636;33;20020;-73
2023/05/30 11:42:21;;;;;;;8.32;3.62;;;30.20;54.80;;;;;;10788747;33;20042;-72
2023/05/30 11:48:23;;;;;;;12.07;4.70;;;30.50;53.80;;;;;;10788621;33;20035;-71
2023/05/30 11:54:27;;;;;;;8.38;4.05;;;30.60;52.60;;;;;;10788450;33;20376;-71
2023/05/30 12:00:29;;;;;;;6.47;2.92;;;30.60;52.70;;;;;;10786621;33;20498;-72
2023/05/30 12:06:31;;;;;;;5.35;2.72;;;30.40;54.80;;;;;;10788246;33;20017;-72
2023/05/30 12:12:34;;;;;;;6.32;3.78;;;30.50;52.20;;;;;;10788074;33;20350;-71
2023/05/30 12:18:36;;;;;;;22.90;4.30;;;30.50;53.50;;;;;;10774912;33;20051;-73
2023/05/30 12:24:38;;;;;;;4.78;3.30;;;30.40;55.20;;;;;;10787527;33;20055;-72
2023/05/30 12:30:43;;;;;;;8.65;5.05;;;30.20;56.10;;;;;;10775380;32;20391;-73
2023/05/30 12:36:47;;;;;;;9.85;3.45;;;29.90;56.00;;;;;;10785726;32;20027;-73
2023/05/30 12:42:49;;;;;;;3.75;2.05;;;29.80;54.30;;;;;;10799456;33;20060;-72
2023/05/30 12:48:51;;;;;;;7.87;4.40;;;30.00;52.00;;;;;;10799458;33;20020;-71
2023/05/30 12:54:53;;;;;;;5.75;3.15;;;30.10;51.60;;;;;;10795555;33;20016;-72
2023/05/30 13:00:55;;;;;;;6.07;2.87;;;30.00;53.10;;;;;;10799165;33;20059;-72
2023/05/30 13:06:58;;;;;;;6.18;2.90;;;30.00;52.50;;;;;;10799139;33;20039;-72
2023/05/30 13:13:00;;;;;;;5.78;2.50;;;30.10;50.70;;;;;;10799098;33;20063;-72
2023/05/30 13:19:02;;;;;;;4.97;2.80;;;30.00;50.20;;;;;;10792581;32;20553;-73
2023/05/30 13:25:06;;;;;;;6.07;3.25;;;29.70;53.20;;;;;;10772222;32;20023;-72
2023/05/30 13:31:08;;;;;;;5.95;3.08;;;29.40;53.30;;;;;;10769574;33;20048;-73
2023/05/30 13:37:26;;;;;;;5.90;2.92;;;29.30;53.50;;;;;;10771229;32;20060;-72
2023/05/30 13:43:28;;;;;;;5.85;3.15;;;29.10;53.70;;;;;;10781126;33;20334;-71
2023/05/30 13:49:35;;;;;;;5.45;2.35;;;28.90;54.50;;;;;;10790596;32;20438;-73
2023/05/30 13:55:37;;;;;;;4.47;2.62;;;28.90;55.10;;;;;;10781357;32;20544;-72
2023/05/30 14:01:40;;;;;;;14.15;3.47;;;28.90;54.40;;;;;;10761847;32;20064;-74
2023/05/30 14:07:43;;;;;;;6.43;3.60;;;29.00;55.20;;;;;;10777203;32;20028;-72
2023/05/30 14:13:46;;;;;;;8.88;3.80;;;29.10;55.70;;;;;;10791029;33;20020;-71
2023/05/30 14:19:51;;;;;;;6.95;2.90;;;29.20;53.30;;;;;;10761490;32;20046;-72
2023/05/30 14:25:55;;;;;;;5.57;2.37;;;29.30;52.10;;;;;;10788410;33;20109;-72
2023/05/30 14:32:00;;;;;;;11.50;4.50;;;29.40;52.80;;;;;;10840648;32;20441;-72
2023/05/30 14:38:02;;;;;;;7.55;3.33;;;29.50;50.40;;;;;;10790682;33;20024;-73
2023/05/30 14:44:08;;;;;;;4.30;2.55;;;29.60;54.60;;;;;;10790504;33;20345;-73
2023/05/30 14:50:56;;;;;;;5.35;2.97;;;29.50;53.00;;;;;;10829800;32;20028;-72
2023/05/30 14:57:02;;;;;;;7.07;3.10;;;29.50;53.60;;;;;;10827344;32;20036;-71
2023/05/30 15:03:05;;;;;;;4.95;3.17;;;29.60;51.60;;;;;;10815254;32;20031;-73
2023/05/30 15:09:12;;;;;;;8.85;3.80;;;29.60;50.00;;;;;;10827913;32;20046;-72
2023/05/30 15:15:14;;;;;;;7.07;3.03;;;29.40;50.90;;;;;;10828938;32;20020;-72
2023/05/30 15:21:16;;;;;;;7.87;3.50;;;29.30;50.60;;;;;;10828096;32;20031;-72
2023/05/30 15:27:18;;;;;;;9.60;3.45;;;29.40;52.70;;;;;;10800464;27;20055;-72
2023/05/30 15:33:20;;;;;;;4.95;2.35;;;29.40;51.90;;;;;;10775716;33;20058;-72
2023/05/30 15:39:22;;;;;;;5.62;3.95;;;29.50;52.10;;;;;;10788905;33;20020;-72
2023/05/30 15:45:51;;;;;;;11.93;3.33;;;29.50;54.00;;;;;;10788991;33;20042;-73
2023/05/30 15:51:54;;;;;;;4.68;2.58;;;29.50;52.00;;;;;;10788649;33;20024;-72
2023/05/30 15:57:56;;;;;;;5.25;3.12;;;29.50;52.70;;;;;;10789139;33;20289;-72
2023/05/30 16:03:58;;;;;;;4.78;2.70;;;29.40;54.20;;;;;;10788318;33;20046;-71
2023/05/30 16:10:01;;;;;;;9.20;3.62;;;29.40;54.80;;;;;;10787871;33;20020;-71
2023/05/30 16:16:03;;;;;;;7.85;3.37;;;29.30;55.10;;;;;;10786283;32;20024;-71
2023/05/30 16:22:05;;;;;;;3.90;2.42;;;29.30;54.40;;;;;;10785487;33;20399;-72
2023/05/30 16:28:08;;;;;;;7.18;2.80;;;29.30;53.90;;;;;;10787896;33;20020;-71
2023/05/30 16:34:10;;;;;;;5.15;2.55;;;29.30;53.80;;;;;;10787704;33;20052;-71
2023/05/30 16:40:12;;;;;;;5.05;3.30;;;29.10;54.90;;;;;;10787356;33;20024;-72
2023/05/30 16:46:15;;;;;;;5.60;3.10;;;28.90;55.40;;;;;;10786492;33;20307;-72
2023/05/30 16:52:17;;;;;;;3.42;1.98;;;28.80;55.40;;;;;;10787221;33;20024;-72
2023/05/30 16:58:20;;;;;;;3.72;2.20;;;28.80;56.30;;;;;;10786967;33;20056;-73
2023/05/30 17:04:22;;;;;;;4.30;2.58;;;28.90;55.80;;;;;;10786896;33;20021;-73
2023/05/30 17:10:24;;;;;;;3.80;1.83;;;29.00;57.00;;;;;;10773763;33;20039;-72
2023/05/30 17:16:26;;;;;;;3.37;2.30;;;29.00;57.50;;;;;;10773336;33;20039;-73
2023/05/30 17:22:29;;;;;;;2.58;1.37;;;28.90;57.80;;;;;;10790461;33;20024;-72
2023/05/30 17:28:31;;;;;;;6.15;2.83;;;28.80;57.70;;;;;;10792322;33;20047;-72
2023/05/30 17:34:34;;;;;;;3.78;2.17;;;28.80;58.30;;;;;;10791966;32;20338;-73
2023/05/30 17:40:36;;;;;;;4.53;2.58;;;28.60;59.50;;;;;;10792407;33;20028;-73
2023/05/30 17:46:39;;;;;;;4.47;2.65;;;28.40;60.20;;;;;;10779374;33;20016;-73
2023/05/30 17:52:41;;;;;;;3.50;1.85;;;28.30;61.20;;;;;;10792089;33;20017;-74
2023/05/30 17:58:43;;;;;;;3.08;1.98;;;28.30;62.10;;;;;;10791817;33;20043;-74
2023/05/30 18:04:45;;;;;;;4.25;1.80;;;28.20;62.40;;;;;;10774994;32;20059;-74
2023/05/30 18:10:48;;;;;;;3.03;1.62;;;28.00;62.90;;;;;;10791224;33;20398;-74
2023/05/30 18:16:50;;;;;;;5.47;2.00;;;27.90;63.50;;;;;;10790684;33;20059;-74
2023/05/30 18:22:52;;;;;;;3.05;1.30;;;27.80;64.40;;;;;;10791385;33;20043;-74
2023/05/30 18:28:54;;;;;;;3.22;1.50;;;27.80;65.10;;;;;;10766934;33;20037;-75
2023/05/30 18:34:56;;;;;;;7.87;2.35;;;27.80;65.40;;;;;;10753965;33;20394;-74
2023/05/30 18:40:58;;;;;;;3.50;1.77;;;27.70;65.80;;;;;;10753297;33;20047;-74
2023/05/30 18:47:01;;;;;;;2.40;1.12;;;27.60;66.80;;;;;;10728338;33;20043;-73
2023/05/30 18:53:03;;;;;;;2.33;1.12;;;27.60;67.80;;;;;;10753834;33;20330;-74
2023/05/30 18:59:06;;;;;;;4.37;1.80;;;27.30;69.20;;;;;;10753735;33;20334;-74
2023/05/30 19:05:08;;;;;;;9.25;2.97;;;27.20;70.00;;;;;;10753540;33;20055;-72
2023/05/30 19:11:10;;;;;;;10.63;4.05;;;27.00;68.90;;;;;;10753345;33;20431;-72
2023/05/30 19:17:13;;;;;;;11.48;3.95;;;26.80;70.70;;;;;;10753193;33;20402;-71
2023/05/30 19:23:15;;;;;;;5.80;3.10;;;26.50;69.90;;;;;;10752921;33;20025;-74
2023/05/30 19:29:17;;;;;;;4.78;2.20;;;26.30;70.80;;;;;;10706842;33;20346;-71
2023/05/30 19:35:19;;;;;;;5.90;3.60;;;26.10;71.20;;;;;;10703569;33;20009;-72
2023/05/30 19:41:22;;;;;;;7.35;3.50;;;25.80;70.90;;;;;;10729628;32;20029;-72
2023/05/30 19:47:24;;;;;;;5.57;2.58;;;25.80;71.80;;;;;;10739046;33;20055;-71
2023/05/30 19:53:26;;;;;;;11.32;5.32;;;25.70;70.80;;;;;;10745957;33;20399;-72
2023/05/30 19:59:29;;;;;;;8.43;4.85;;;25.40;69.70;;;;;;10715652;33;20434;-71
2023/05/30 20:05:31;;;;;;;8.07;4.25;;;25.20;70.90;;;;;;10715450;33;20370;-72
2023/05/30 20:11:33;;;;;;;8.20;4.78;;;25.10;70.50;;;;;;10715128;33;20040;-72
2023/05/30 20:17:38;;;;;;;9.68;4.37;;;25.00;71.50;;;;;;10714064;33;20036;-74
2023/05/30 20:23:40;;;;;;;10.27;4.68;;;25.00;71.90;;;;;;10699654;33;20057;-72
2023/05/30 20:29:42;;;;;;;7.18;4.15;;;24.90;72.70;;;;;;10750528;33;20043;-71
2023/05/30 20:35:45;;;;;;;5.25;3.53;;;24.80;72.80;;;;;;10751189;33;20027;-74
2023/05/30 20:41:47;;;;;;;4.68;2.35;;;24.60;73.60;;;;;;10750997;33;20021;-73
2023/05/30 20:47:49;;;;;;;3.47;2.08;;;24.70;74.70;;;;;;10737572;33;20055;-73
2023/05/30 20:53:51;;;;;;;3.58;2.08;;;24.80;74.90;;;;;;10739624;33;20020;-74
2023/05/30 20:59:54;;;;;;;5.60;3.00;;;24.80;75.50;;;;;;10757172;33;20047;-71
2023/05/30 21:05:56;;;;;;;5.43;3.28;;;24.70;75.40;;;;;;10757003;33;20024;-72
2023/05/30 21:11:58;;;;;;;6.90;4.25;;;24.30;75.80;;;;;;10756813;33;20017;-72
2023/05/30 21:18:00;;;;;;;5.25;3.30;;;24.30;77.00;;;;;;10756612;33;20056;-73
2023/05/30 21:24:03;;;;;;;3.15;1.73;;;24.30;77.20;;;;;;10743481;32;20101;-72
2023/05/30 21:30:06;;;;;;;4.00;1.87;;;24.40;77.10;;;;;;10743405;33;20017;-73
2023/05/30 21:36:08;;;;;;;3.37;1.85;;;24.40;76.80;;;;;;10756162;32;20017;-74
2023/05/30 21:42:10;;;;;;;2.33;1.37;;;24.50;76.60;;;;;;10742820;33;20086;-73
2023/05/30 21:48:13;;;;;;;2.87;1.42;;;24.50;76.60;;;;;;10755794;33;20020;-73
2023/05/30 21:54:40;;;;;;;3.50;1.85;;;24.60;76.70;;;;;;10755604;33;20020;-73
2023/05/30 22:00:42;;;;;;;3.20;1.80;;;24.50;76.90;;;;;;10755463;32;20029;-71
2023/05/30 22:06:44;;;;;;;3.92;1.95;;;24.50;77.50;;;;;;10754891;33;20021;-72
2023/05/30 22:12:47;;;;;;;5.18;2.05;;;24.40;77.90;;;;;;10754797;33;20024;-71
2023/05/30 22:18:49;;;;;;;2.95;1.62;;;24.30;78.30;;;;;;10754927;33;20021;-71
2023/05/30 22:24:51;;;;;;;6.12;2.83;;;24.20;78.00;;;;;;10754667;33;20083;-71
2023/05/30 22:30:53;;;;;;;3.70;2.37;;;24.20;77.50;;;;;;10741429;33;20051;-71
2023/05/30 22:36:55;;;;;;;8.52;3.22;;;24.10;77.90;;;;;;10754442;33;20062;-71
2023/05/30 22:42:57;;;;;;;3.90;2.00;;;24.00;78.50;;;;;;10740726;32;20029;-72
2023/05/30 22:48:59;;;;;;;3.25;2.30;;;24.10;79.00;;;;;;10741165;33;20046;-72
2023/05/30 22:55:01;;;;;;;2.15;1.55;;;24.00;79.10;;;;;;10740916;33;20059;-71
2023/05/30 23:01:03;;;;;;;2.92;1.92;;;24.00;79.20;;;;;;10753672;33;20024;-71
2023/05/30 23:07:05;;;;;;;2.85;1.40;;;24.10;79.20;;;;;;10753553;33;20017;-71
2023/05/30 23:13:07;;;;;;;3.55;2.05;;;24.00;78.70;;;;;;10753444;33;20481;-73
2023/05/30 23:19:09;;;;;;;2.83;1.92;;;24.10;78.90;;;;;;10752327;33;20037;-71
2023/05/30 23:25:11;;;;;;;4.53;2.35;;;24.10;78.90;;;;;;10765368;27;20023;-72
2023/05/30 23:31:13;;;;;;;4.80;2.42;;;23.90;78.70;;;;;;10789336;33;20038;-72
2023/05/30 23:37:15;;;;;;;3.33;2.42;;;23.80;78.80;;;;;;10787795;32;20016;-73
2023/05/30 23:43:17;;;;;;;4.32;2.92;;;23.60;78.50;;;;;;10788959;33;20097;-70
2023/05/30 23:49:19;;;;;;;3.83;2.28;;;23.60;78.50;;;;;;10787255;33;20308;-73
2023/05/30 23:55:21;;;;;;;4.93;3.08;;;23.40;77.70;;;;;;10775841;33;20020;-71
